sensor_id;sensor_type;location;lat;lon;timestamp;temperature;humidity
15143;DHT22;7672;50.834;6.286;2023-04-25T00:00:14;10.80;99.90
15143;DHT22;7672;50.834;6.286;2023-04-25T00:02:41;10.80;99.90
15143;DHT22;7672;50.834;6.286;2023-04-25T00:05:09;11.00;99.90
15143;DHT22;7672;50.834;6.286;2023-04-25T00:07:36;10.80;99.90
15143;DHT22;7672;50.834;6.286;2023-04-25T00:10:03;10.70;99.90
15143;DHT22;7672;50.834;6.286;2023-04-25T00:12:31;10.70;99.90
15143;DHT22;7672;50.834;6.286;2023-04-25T00:14:59;10.70;99.90
15143;DHT22;7672;50.834;6.286;2023-04-25T00:17:26;10.60;99.90
15143;DHT22;7672;50.834;6.286;2023-04-25T00:19:53;10.70;99.90
15143;DHT22;7672;50.834;6.286;2023-04-25T00:22:20;10.70;99.90
15143;DHT22;7672;50.834;6.286;2023-04-25T00:24:47;10.80;99.90
15143;DHT22;7672;50.834;6.286;2023-04-25T00:27:14;10.70;99.90
15143;DHT22;7672;50.834;6.286;2023-04-25T00:29:41;11.50;99.90
15143;DHT22;7672;50.834;6.286;2023-04-25T00:32:08;10.80;99.90
15143;DHT22;7672;50.834;6.286;2023-04-25T00:34:35;10.50;99.90
15143;DHT22;7672;50.834;6.286;2023-04-25T00:37:02;10.60;99.90
15143;DHT22;7672;50.834;6.286;2023-04-25T00:39:29;10.60;99.90
15143;DHT22;7672;50.834;6.286;2023-04-25T00:41:56;10.60;99.90
15143;DHT22;7672;50.834;6.286;2023-04-25T00:44:24;10.60;99.90
15143;DHT22;7672;50.834;6.286;2023-04-25T00:46:55;10.60;99.90
15143;DHT22;7672;50.834;6.286;2023-04-25T00:49:22;10.60;99.90
15143;DHT22;7672;50.834;6.286;2023-04-25T00:51:49;10.60;99.90
15143;DHT22;7672;50.834;6.286;2023-04-25T00:54:16;10.60;99.90
15143;DHT22;7672;50.834;6.286;2023-04-25T00:56:45;10.60;99.90
15143;DHT22;7672;50.834;6.286;2023-04-25T00:59:12;10.60;99.90
15143;DHT22;7672;50.834;6.286;2023-04-25T01:01:39;10.50;99.90
15143;DHT22;7672;50.834;6.286;2023-04-25T01:04:08;10.90;99.90
15143;DHT22;7672;50.834;6.286;2023-04-25T01:06:35;10.50;99.90
15143;DHT22;7672;50.834;6.286;2023-04-25T01:09:02;10.40;99.90
15143;DHT22;7672;50.834;6.286;2023-04-25T01:11:31;10.50;99.90
15143;DHT22;7672;50.834;6.286;2023-04-25T01:13:58;10.70;99.90
15143;DHT22;7672;50.834;6.286;2023-04-25T01:16:25;10.40;99.90
15143;DHT22;7672;50.834;6.286;2023-04-25T01:18:54;10.40;99.90
15143;DHT22;7672;50.834;6.286;2023-04-25T01:21:21;10.30;99.90
15143;DHT22;7672;50.834;6.286;2023-04-25T01:23:48;10.40;99.90
15143;DHT22;7672;50.834;6.286;2023-04-25T01:26:15;10.40;99.90
15143;DHT22;7672;50.834;6.286;2023-04-25T01:28:42;10.40;99.90
15143;DHT22;7672;50.834;6.286;2023-04-25T01:31:11;10.30;99.90
15143;DHT22;7672;50.834;6.286;2023-04-25T01:33:38;9.90;99.90
15143;DHT22;7672;50.834;6.286;2023-04-25T01:36:06;10.50;99.90
15143;DHT22;7672;50.834;6.286;2023-04-25T01:38:33;10.30;99.90
15143;DHT22;7672;50.834;6.286;2023-04-25T01:41:00;10.30;99.90
15143;DHT22;7672;50.834;6.286;2023-04-25T01:43:27;10.40;99.90
15143;DHT22;7672;50.834;6.286;2023-04-25T01:45:54;10.30;99.90
15143;DHT22;7672;50.834;6.286;2023-04-25T01:48:21;10.40;99.90
15143;DHT22;7672;50.834;6.286;2023-04-25T01:50:48;10.40;99.90
15143;DHT22;7672;50.834;6.286;2023-04-25T01:53:15;10.40;99.90
15143;DHT22;7672;50.834;6.286;2023-04-25T01:55:42;10.40;99.90
15143;DHT22;7672;50.834;6.286;2023-04-25T01:58:09;10.40;99.90
15143;DHT22;7672;50.834;6.286;2023-04-25T02:00:36;10.40;99.90
15143;DHT22;7672;50.834;6.286;2023-04-25T02:03:05;10.40;99.90
15143;DHT22;7672;50.834;6.286;2023-04-25T02:05:37;10.40;99.90
15143;DHT22;7672;50.834;6.286;2023-04-25T02:08:06;10.40;99.90
15143;DHT22;7672;50.834;6.286;2023-04-25T02:10:35;10.40;99.90
15143;DHT22;7672;50.834;6.286;2023-04-25T02:13:02;10.40;99.90
15143;DHT22;7672;50.834;6.286;2023-04-25T02:15:31;10.40;99.90
15143;DHT22;7672;50.834;6.286;2023-04-25T02:17:58;10.40;99.90
15143;DHT22;7672;50.834;6.286;2023-04-25T02:20:28;10.60;99.90
15143;DHT22;7672;50.834;6.286;2023-04-25T02:22:56;11.00;99.90
15143;DHT22;7672;50.834;6.286;2023-04-25T02:25:23;10.40;99.90
15143;DHT22;7672;50.834;6.286;2023-04-25T02:27:50;10.40;99.90
15143;DHT22;7672;50.834;6.286;2023-04-25T02:30:17;10.40;99.90
15143;DHT22;7672;50.834;6.286;2023-04-25T02:32:44;10.40;99.90
15143;DHT22;7672;50.834;6.286;2023-04-25T02:35:12;10.90;99.90
15143;DHT22;7672;50.834;6.286;2023-04-25T02:37:39;10.40;99.90
15143;DHT22;7672;50.834;6.286;2023-04-25T02:40:07;10.40;99.90
15143;DHT22;7672;50.834;6.286;2023-04-25T02:42:35;10.40;99.90
15143;DHT22;7672;50.834;6.286;2023-04-25T02:45:02;10.60;99.90
15143;DHT22;7672;50.834;6.286;2023-04-25T02:47:30;10.40;99.90
15143;DHT22;7672;50.834;6.286;2023-04-25T02:49:57;10.60;99.90
15143;DHT22;7672;50.834;6.286;2023-04-25T02:52:24;10.30;99.90
15143;DHT22;7672;50.834;6.286;2023-04-25T02:54:51;11.10;99.90
15143;DHT22;7672;50.834;6.286;2023-04-25T02:57:18;10.40;99.90
15143;DHT22;7672;50.834;6.286;2023-04-25T02:59:45;10.40;99.90
15143;DHT22;7672;50.834;6.286;2023-04-25T03:02:12;10.40;99.90
15143;DHT22;7672;50.834;6.286;2023-04-25T03:04:39;10.40;99.90
15143;DHT22;7672;50.834;6.286;2023-04-25T03:07:06;10.40;99.90
15143;DHT22;7672;50.834;6.286;2023-04-25T03:09:33;10.40;99.90
15143;DHT22;7672;50.834;6.286;2023-04-25T03:12:01;10.40;99.90
15143;DHT22;7672;50.834;6.286;2023-04-25T03:14:28;10.40;99.90
15143;DHT22;7672;50.834;6.286;2023-04-25T03:16:54;10.40;99.90
15143;DHT22;7672;50.834;6.286;2023-04-25T03:19:21;10.40;99.90
15143;DHT22;7672;50.834;6.286;2023-04-25T03:21:48;10.40;99.90
15143;DHT22;7672;50.834;6.286;2023-04-25T03:24:15;10.40;99.90
15143;DHT22;7672;50.834;6.286;2023-04-25T03:26:42;10.00;99.90
15143;DHT22;7672;50.834;6.286;2023-04-25T03:29:09;10.40;99.90
15143;DHT22;7672;50.834;6.286;2023-04-25T03:31:36;10.40;99.90
15143;DHT22;7672;50.834;6.286;2023-04-25T03:34:02;10.40;99.90
15143;DHT22;7672;50.834;6.286;2023-04-25T03:36:29;11.00;99.90
15143;DHT22;7672;50.834;6.286;2023-04-25T03:38:56;10.30;99.90
15143;DHT22;7672;50.834;6.286;2023-04-25T03:41:23;10.30;99.90
15143;DHT22;7672;50.834;6.286;2023-04-25T03:43:51;10.60;99.90
15143;DHT22;7672;50.834;6.286;2023-04-25T03:46:18;10.40;99.90
15143;DHT22;7672;50.834;6.286;2023-04-25T03:48:45;10.20;99.90
15143;DHT22;7672;50.834;6.286;2023-04-25T03:51:12;10.20;99.90
15143;DHT22;7672;50.834;6.286;2023-04-25T03:53:39;11.00;99.90
15143;DHT22;7672;50.834;6.286;2023-04-25T03:56:06;10.20;99.90
15143;DHT22;7672;50.834;6.286;2023-04-25T03:58:33;10.20;99.90
15143;DHT22;7672;50.834;6.286;2023-04-25T04:01:00;10.90;99.90
15143;DHT22;7672;50.834;6.286;2023-04-25T04:03:29;10.80;99.90
15143;DHT22;7672;50.834;6.286;2023-04-25T04:05:57;10.20;99.90
15143;DHT22;7672;50.834;6.286;2023-04-25T04:08:25;10.10;99.90
15143;DHT22;7672;50.834;6.286;2023-04-25T04:10:52;10.90;99.90
15143;DHT22;7672;50.834;6.286;2023-04-25T04:13:21;10.10;99.90
15143;DHT22;7672;50.834;6.286;2023-04-25T04:15:48;10.40;99.90
15143;DHT22;7672;50.834;6.286;2023-04-25T04:18:15;10.20;99.90
15143;DHT22;7672;50.834;6.286;2023-04-25T04:20:42;10.10;99.90
15143;DHT22;7672;50.834;6.286;2023-04-25T04:23:09;9.90;99.90
15143;DHT22;7672;50.834;6.286;2023-04-25T04:25:37;10.10;99.90
15143;DHT22;7672;50.834;6.286;2023-04-25T04:28:04;10.10;99.90
15143;DHT22;7672;50.834;6.286;2023-04-25T04:30:31;10.80;99.90
15143;DHT22;7672;50.834;6.286;2023-04-25T04:32:59;10.10;99.90
15143;DHT22;7672;50.834;6.286;2023-04-25T04:35:27;10.10;99.90
15143;DHT22;7672;50.834;6.286;2023-04-25T04:37:54;10.10;99.90
15143;DHT22;7672;50.834;6.286;2023-04-25T04:40:21;10.40;99.90
15143;DHT22;7672;50.834;6.286;2023-04-25T04:42:48;10.10;99.90
15143;DHT22;7672;50.834;6.286;2023-04-25T04:45:16;10.10;99.90
15143;DHT22;7672;50.834;6.286;2023-04-25T04:47:43;10.10;99.90
15143;DHT22;7672;50.834;6.286;2023-04-25T04:50:12;10.10;99.90
15143;DHT22;7672;50.834;6.286;2023-04-25T04:52:39;10.10;99.90
15143;DHT22;7672;50.834;6.286;2023-04-25T04:55:06;10.40;99.90
15143;DHT22;7672;50.834;6.286;2023-04-25T04:57:34;10.10;99.90
15143;DHT22;7672;50.834;6.286;2023-04-25T05:00:02;10.10;99.90
15143;DHT22;7672;50.834;6.286;2023-04-25T05:02:31;10.10;99.90
15143;DHT22;7672;50.834;6.286;2023-04-25T05:04:58;10.10;99.90
15143;DHT22;7672;50.834;6.286;2023-04-25T05:07:25;10.20;99.90
15143;DHT22;7672;50.834;6.286;2023-04-25T05:09:51;10.20;99.90
15143;DHT22;7672;50.834;6.286;2023-04-25T05:12:18;10.20;99.90
15143;DHT22;7672;50.834;6.286;2023-04-25T05:14:45;10.20;99.90
15143;DHT22;7672;50.834;6.286;2023-04-25T05:17:12;10.30;99.90
15143;DHT22;7672;50.834;6.286;2023-04-25T05:19:39;10.30;99.90
15143;DHT22;7672;50.834;6.286;2023-04-25T05:22:06;10.30;99.90
15143;DHT22;7672;50.834;6.286;2023-04-25T05:24:33;10.40;99.90
15143;DHT22;7672;50.834;6.286;2023-04-25T05:26:59;10.40;99.90
15143;DHT22;7672;50.834;6.286;2023-04-25T05:29:26;10.90;99.90
15143;DHT22;7672;50.834;6.286;2023-04-25T05:31:53;10.50;99.90
15143;DHT22;7672;50.834;6.286;2023-04-25T05:34:20;10.50;99.90
15143;DHT22;7672;50.834;6.286;2023-04-25T05:36:47;11.20;99.90
15143;DHT22;7672;50.834;6.286;2023-04-25T05:39:17;10.60;99.90
15143;DHT22;7672;50.834;6.286;2023-04-25T05:41:44;10.70;99.90
15143;DHT22;7672;50.834;6.286;2023-04-25T05:44:11;10.70;99.90
15143;DHT22;7672;50.834;6.286;2023-04-25T05:46:38;10.70;99.90
15143;DHT22;7672;50.834;6.286;2023-04-25T05:49:04;10.70;99.90
15143;DHT22;7672;50.834;6.286;2023-04-25T05:51:31;10.80;99.90
15143;DHT22;7672;50.834;6.286;2023-04-25T05:53:58;10.80;99.90
15143;DHT22;7672;50.834;6.286;2023-04-25T05:56:25;11.30;99.90
15143;DHT22;7672;50.834;6.286;2023-04-25T05:58:52;10.90;99.90
15143;DHT22;7672;50.834;6.286;2023-04-25T06:01:19;11.00;99.90
15143;DHT22;7672;50.834;6.286;2023-04-25T06:03:46;11.00;99.90
15143;DHT22;7672;50.834;6.286;2023-04-25T06:06:13;11.00;99.90
15143;DHT22;7672;50.834;6.286;2023-04-25T06:08:41;11.10;99.90
15143;DHT22;7672;50.834;6.286;2023-04-25T06:11:07;11.10;99.90
15143;DHT22;7672;50.834;6.286;2023-04-25T06:13:34;11.30;99.90
15143;DHT22;7672;50.834;6.286;2023-04-25T06:16:01;11.30;99.90
15143;DHT22;7672;50.834;6.286;2023-04-25T06:18:28;11.30;99.90
15143;DHT22;7672;50.834;6.286;2023-04-25T06:20:55;11.40;99.90
15143;DHT22;7672;50.834;6.286;2023-04-25T06:23:22;11.50;99.90
15143;DHT22;7672;50.834;6.286;2023-04-25T06:25:49;11.70;99.90
15143;DHT22;7672;50.834;6.286;2023-04-25T06:28:15;12.10;99.90
15143;DHT22;7672;50.834;6.286;2023-04-25T06:30:42;12.00;99.90
15143;DHT22;7672;50.834;6.286;2023-04-25T06:33:09;12.10;99.90
15143;DHT22;7672;50.834;6.286;2023-04-25T06:35:36;12.30;99.90
15143;DHT22;7672;50.834;6.286;2023-04-25T06:38:03;12.50;99.90
15143;DHT22;7672;50.834;6.286;2023-04-25T06:40:29;12.60;99.90
15143;DHT22;7672;50.834;6.286;2023-04-25T06:42:56;12.70;99.90
15143;DHT22;7672;50.834;6.286;2023-04-25T06:45:23;12.90;99.90
15143;DHT22;7672;50.834;6.286;2023-04-25T06:47:50;13.00;99.90
15143;DHT22;7672;50.834;6.286;2023-04-25T06:50:17;13.10;99.90
15143;DHT22;7672;50.834;6.286;2023-04-25T06:52:43;13.40;99.90
15143;DHT22;7672;50.834;6.286;2023-04-25T06:55:10;13.60;99.90
15143;DHT22;7672;50.834;6.286;2023-04-25T06:57:37;14.10;99.90
15143;DHT22;7672;50.834;6.286;2023-04-25T07:00:04;14.20;99.90
15143;DHT22;7672;50.834;6.286;2023-04-25T07:02:35;14.20;99.90
15143;DHT22;7672;50.834;6.286;2023-04-25T07:05:03;14.70;99.90
15143;DHT22;7672;50.834;6.286;2023-04-25T07:07:30;14.70;99.90
15143;DHT22;7672;50.834;6.286;2023-04-25T07:09:57;14.80;99.90
15143;DHT22;7672;50.834;6.286;2023-04-25T07:12:24;15.00;99.90
15143;DHT22;7672;50.834;6.286;2023-04-25T07:14:51;15.00;99.90
15143;DHT22;7672;50.834;6.286;2023-04-25T07:17:17;15.10;99.90
15143;DHT22;7672;50.834;6.286;2023-04-25T07:19:44;15.50;99.90
15143;DHT22;7672;50.834;6.286;2023-04-25T07:22:11;15.10;99.90
15143;DHT22;7672;50.834;6.286;2023-04-25T07:24:38;14.90;99.90
15143;DHT22;7672;50.834;6.286;2023-04-25T07:27:05;15.10;99.90
15143;DHT22;7672;50.834;6.286;2023-04-25T07:29:32;14.80;99.90
15143;DHT22;7672;50.834;6.286;2023-04-25T07:32:02;15.10;99.90
15143;DHT22;7672;50.834;6.286;2023-04-25T07:34:29;14.90;99.90
15143;DHT22;7672;50.834;6.286;2023-04-25T07:36:56;14.70;99.90
15143;DHT22;7672;50.834;6.286;2023-04-25T07:39:23;14.90;99.90
15143;DHT22;7672;50.834;6.286;2023-04-25T07:41:50;14.50;99.90
15143;DHT22;7672;50.834;6.286;2023-04-25T07:44:20;14.50;99.90
15143;DHT22;7672;50.834;6.286;2023-04-25T07:46:47;14.50;99.90
15143;DHT22;7672;50.834;6.286;2023-04-25T07:49:14;14.50;99.90
15143;DHT22;7672;50.834;6.286;2023-04-25T07:51:41;14.70;99.90
15143;DHT22;7672;50.834;6.286;2023-04-25T07:54:12;14.40;99.90
15143;DHT22;7672;50.834;6.286;2023-04-25T07:56:40;14.50;99.90
15143;DHT22;7672;50.834;6.286;2023-04-25T07:59:19;14.50;99.90
15143;DHT22;7672;50.834;6.286;2023-04-25T08:01:46;14.60;99.90
15143;DHT22;7672;50.834;6.286;2023-04-25T08:04:13;14.70;99.90
15143;DHT22;7672;50.834;6.286;2023-04-25T08:06:40;15.00;99.90
15143;DHT22;7672;50.834;6.286;2023-04-25T08:09:07;15.00;99.90
15143;DHT22;7672;50.834;6.286;2023-04-25T08:11:36;15.10;99.90
15143;DHT22;7672;50.834;6.286;2023-04-25T08:14:03;15.20;99.90
15143;DHT22;7672;50.834;6.286;2023-04-25T08:16:30;15.40;99.90
15143;DHT22;7672;50.834;6.286;2023-04-25T08:18:57;15.90;99.90
15143;DHT22;7672;50.834;6.286;2023-04-25T08:21:25;15.60;99.90
15143;DHT22;7672;50.834;6.286;2023-04-25T08:23:53;15.20;99.90
15143;DHT22;7672;50.834;6.286;2023-04-25T08:26:20;15.90;99.90
15143;DHT22;7672;50.834;6.286;2023-04-25T08:28:47;15.60;99.90
15143;DHT22;7672;50.834;6.286;2023-04-25T08:31:14;15.80;99.90
15143;DHT22;7672;50.834;6.286;2023-04-25T08:33:41;16.00;99.90
15143;DHT22;7672;50.834;6.286;2023-04-25T08:36:08;16.10;99.90
15143;DHT22;7672;50.834;6.286;2023-04-25T08:38:35;16.30;99.90
15143;DHT22;7672;50.834;6.286;2023-04-25T08:41:03;16.50;99.90
15143;DHT22;7672;50.834;6.286;2023-04-25T08:43:34;16.70;99.90
15143;DHT22;7672;50.834;6.286;2023-04-25T08:46:01;16.80;99.90
15143;DHT22;7672;50.834;6.286;2023-04-25T08:48:32;16.90;99.90
15143;DHT22;7672;50.834;6.286;2023-04-25T08:51:02;17.40;99.90
15143;DHT22;7672;50.834;6.286;2023-04-25T08:53:33;17.10;99.90
15143;DHT22;7672;50.834;6.286;2023-04-25T08:56:02;17.20;99.90
15143;DHT22;7672;50.834;6.286;2023-04-25T08:58:29;17.30;99.90
15143;DHT22;7672;50.834;6.286;2023-04-25T09:00:57;17.50;99.90
15143;DHT22;7672;50.834;6.286;2023-04-25T09:03:23;17.60;99.90
15143;DHT22;7672;50.834;6.286;2023-04-25T09:05:51;17.90;99.90
15143;DHT22;7672;50.834;6.286;2023-04-25T09:08:18;18.10;99.90
15143;DHT22;7672;50.834;6.286;2023-04-25T09:10:45;18.40;99.90
15143;DHT22;7672;50.834;6.286;2023-04-25T09:13:14;18.60;99.90
15143;DHT22;7672;50.834;6.286;2023-04-25T09:15:51;18.80;99.90
15143;DHT22;7672;50.834;6.286;2023-04-25T09:18:32;19.00;99.90
15143;DHT22;7672;50.834;6.286;2023-04-25T09:21:12;19.20;99.90
15143;DHT22;7672;50.834;6.286;2023-04-25T09:23:44;19.30;99.90
15143;DHT22;7672;50.834;6.286;2023-04-25T09:26:17;19.30;99.90
15143;DHT22;7672;50.834;6.286;2023-04-25T09:28:46;19.20;99.90
15143;DHT22;7672;50.834;6.286;2023-04-25T09:31:23;19.10;99.90
15143;DHT22;7672;50.834;6.286;2023-04-25T09:33:59;19.10;99.90
15143;DHT22;7672;50.834;6.286;2023-04-25T09:36:29;18.90;99.90
15143;DHT22;7672;50.834;6.286;2023-04-25T09:38:57;18.90;99.90
15143;DHT22;7672;50.834;6.286;2023-04-25T09:41:26;18.70;99.90
15143;DHT22;7672;50.834;6.286;2023-04-25T09:43:57;18.60;99.90
15143;DHT22;7672;50.834;6.286;2023-04-25T09:46:32;18.60;99.90
15143;DHT22;7672;50.834;6.286;2023-04-25T09:49:06;18.30;99.90
15143;DHT22;7672;50.834;6.286;2023-04-25T09:51:34;18.10;99.90
15143;DHT22;7672;50.834;6.286;2023-04-25T09:54:01;18.00;99.90
15143;DHT22;7672;50.834;6.286;2023-04-25T09:56:32;17.90;99.90
15143;DHT22;7672;50.834;6.286;2023-04-25T09:59:04;17.80;99.90
15143;DHT22;7672;50.834;6.286;2023-04-25T10:01:32;17.70;99.90
15143;DHT22;7672;50.834;6.286;2023-04-25T10:03:59;17.70;99.90
15143;DHT22;7672;50.834;6.286;2023-04-25T10:06:31;17.60;99.90
15143;DHT22;7672;50.834;6.286;2023-04-25T10:09:01;17.60;99.90
15143;DHT22;7672;50.834;6.286;2023-04-25T10:11:30;17.50;99.90
15143;DHT22;7672;50.834;6.286;2023-04-25T10:14:00;17.50;99.90
15143;DHT22;7672;50.834;6.286;2023-04-25T10:16:27;17.50;99.90
15143;DHT22;7672;50.834;6.286;2023-04-25T10:18:55;17.60;99.90
15143;DHT22;7672;50.834;6.286;2023-04-25T10:21:24;17.70;99.90
15143;DHT22;7672;50.834;6.286;2023-04-25T10:23:54;17.80;99.90
15143;DHT22;7672;50.834;6.286;2023-04-25T10:26:22;18.10;99.90
15143;DHT22;7672;50.834;6.286;2023-04-25T10:29:00;18.50;99.90
15143;DHT22;7672;50.834;6.286;2023-04-25T10:31:30;18.60;99.90
15143;DHT22;7672;50.834;6.286;2023-04-25T10:33:59;19.10;99.90
15143;DHT22;7672;50.834;6.286;2023-04-25T10:36:31;19.50;99.90
15143;DHT22;7672;50.834;6.286;2023-04-25T10:39:04;20.10;99.90
15143;DHT22;7672;50.834;6.286;2023-04-25T10:41:46;20.70;99.90
15143;DHT22;7672;50.834;6.286;2023-04-25T10:44:14;21.10;99.90
15143;DHT22;7672;50.834;6.286;2023-04-25T10:46:44;21.80;99.90
15143;DHT22;7672;50.834;6.286;2023-04-25T10:52:24;22.80;99.90
15143;DHT22;7672;50.834;6.286;2023-04-25T10:54:54;23.20;99.90
15143;DHT22;7672;50.834;6.286;2023-04-25T10:57:36;23.50;99.90
15143;DHT22;7672;50.834;6.286;2023-04-25T11:00:13;23.60;99.90
15143;DHT22;7672;50.834;6.286;2023-04-25T11:02:51;23.70;99.90
15143;DHT22;7672;50.834;6.286;2023-04-25T11:05:23;23.70;99.60
15143;DHT22;7672;50.834;6.286;2023-04-25T11:07:53;23.70;99.80
15143;DHT22;7672;50.834;6.286;2023-04-25T11:10:33;23.70;99.90
15143;DHT22;7672;50.834;6.286;2023-04-25T11:13:04;23.80;99.90
15143;DHT22;7672;50.834;6.286;2023-04-25T11:15:31;23.90;99.80
15143;DHT22;7672;50.834;6.286;2023-04-25T11:17:58;24.00;98.80
15143;DHT22;7672;50.834;6.286;2023-04-25T11:20:25;24.10;98.00
15143;DHT22;7672;50.834;6.286;2023-04-25T11:22:57;23.90;97.20
15143;DHT22;7672;50.834;6.286;2023-04-25T11:25:26;23.80;95.80
15143;DHT22;7672;50.834;6.286;2023-04-25T11:27:56;23.50;96.50
15143;DHT22;7672;50.834;6.286;2023-04-25T11:30:25;23.20;95.10
15143;DHT22;7672;50.834;6.286;2023-04-25T11:32:53;22.80;95.10
15143;DHT22;7672;50.834;6.286;2023-04-25T11:35:20;22.40;96.00
15143;DHT22;7672;50.834;6.286;2023-04-25T11:37:49;22.00;96.20
15143;DHT22;7672;50.834;6.286;2023-04-25T11:40:16;21.60;95.80
15143;DHT22;7672;50.834;6.286;2023-04-25T11:42:45;21.30;96.50
15143;DHT22;7672;50.834;6.286;2023-04-25T11:45:13;20.90;96.10
15143;DHT22;7672;50.834;6.286;2023-04-25T11:47:41;20.60;96.60
15143;DHT22;7672;50.834;6.286;2023-04-25T11:50:08;20.30;96.60
15143;DHT22;7672;50.834;6.286;2023-04-25T11:52:47;20.00;97.00
15143;DHT22;7672;50.834;6.286;2023-04-25T11:55:16;19.70;96.80
15143;DHT22;7672;50.834;6.286;2023-04-25T11:57:46;19.50;97.40
15143;DHT22;7672;50.834;6.286;2023-04-25T12:00:20;19.00;97.50
15143;DHT22;7672;50.834;6.286;2023-04-25T12:02:55;19.00;98.50
15143;DHT22;7672;50.834;6.286;2023-04-25T12:05:29;18.90;98.70
15143;DHT22;7672;50.834;6.286;2023-04-25T12:08:11;18.90;99.40
15143;DHT22;7672;50.834;6.286;2023-04-25T12:10:40;18.60;99.40
15143;DHT22;7672;50.834;6.286;2023-04-25T12:13:25;18.60;99.70
15143;DHT22;7672;50.834;6.286;2023-04-25T12:15:54;18.50;99.90
15143;DHT22;7672;50.834;6.286;2023-04-25T12:18:25;18.50;99.90
15143;DHT22;7672;50.834;6.286;2023-04-25T12:20:55;18.50;99.90
15143;DHT22;7672;50.834;6.286;2023-04-25T12:23:26;18.40;99.90
15143;DHT22;7672;50.834;6.286;2023-04-25T12:25:54;18.50;99.90
15143;DHT22;7672;50.834;6.286;2023-04-25T12:28:23;18.40;99.90
15143;DHT22;7672;50.834;6.286;2023-04-25T12:30:56;18.40;99.90
15143;DHT22;7672;50.834;6.286;2023-04-25T12:33:25;18.50;99.70
15143;DHT22;7672;50.834;6.286;2023-04-25T12:35:54;18.40;99.90
15143;DHT22;7672;50.834;6.286;2023-04-25T12:38:27;18.70;99.20
15143;DHT22;7672;50.834;6.286;2023-04-25T12:40:57;18.70;99.40
15143;DHT22;7672;50.834;6.286;2023-04-25T12:43:25;18.90;99.90
15143;DHT22;7672;50.834;6.286;2023-04-25T12:45:53;18.90;99.90
15143;DHT22;7672;50.834;6.286;2023-04-25T12:48:20;19.20;99.90
15143;DHT22;7672;50.834;6.286;2023-04-25T12:50:49;19.30;99.90
15143;DHT22;7672;50.834;6.286;2023-04-25T12:53:21;19.50;99.90
15143;DHT22;7672;50.834;6.286;2023-04-25T12:55:50;19.70;99.90
15143;DHT22;7672;50.834;6.286;2023-04-25T12:58:18;19.90;99.80
15143;DHT22;7672;50.834;6.286;2023-04-25T13:00:46;20.10;99.40
15143;DHT22;7672;50.834;6.286;2023-04-25T13:03:14;20.10;99.00
15143;DHT22;7672;50.834;6.286;2023-04-25T13:05:42;20.20;98.70
15143;DHT22;7672;50.834;6.286;2023-04-25T13:08:09;20.30;98.00
15143;DHT22;7672;50.834;6.286;2023-04-25T13:10:36;19.90;97.80
15143;DHT22;7672;50.834;6.286;2023-04-25T13:13:04;20.00;96.90
15143;DHT22;7672;50.834;6.286;2023-04-25T13:15:32;19.90;97.40
15143;DHT22;7672;50.834;6.286;2023-04-25T13:17:59;19.70;98.30
15143;DHT22;7672;50.834;6.286;2023-04-25T13:20:26;19.60;97.40
15143;DHT22;7672;50.834;6.286;2023-04-25T13:22:52;19.50;97.20
15143;DHT22;7672;50.834;6.286;2023-04-25T13:25:19;19.40;98.60
15143;DHT22;7672;50.834;6.286;2023-04-25T13:27:48;19.40;98.00
15143;DHT22;7672;50.834;6.286;2023-04-25T13:30:15;19.30;97.60
15143;DHT22;7672;50.834;6.286;2023-04-25T13:32:42;19.40;98.80
15143;DHT22;7672;50.834;6.286;2023-04-25T13:35:11;19.90;97.00
15143;DHT22;7672;50.834;6.286;2023-04-25T13:37:40;19.20;97.60
15143;DHT22;7672;50.834;6.286;2023-04-25T13:40:09;19.30;98.30
15143;DHT22;7672;50.834;6.286;2023-04-25T13:42:38;19.30;97.40
15143;DHT22;7672;50.834;6.286;2023-04-25T13:45:06;19.30;97.30
15143;DHT22;7672;50.834;6.286;2023-04-25T13:47:34;19.30;96.20
15143;DHT22;7672;50.834;6.286;2023-04-25T13:50:03;19.20;95.90
15143;DHT22;7672;50.834;6.286;2023-04-25T13:52:32;19.20;95.70
15143;DHT22;7672;50.834;6.286;2023-04-25T13:54:59;19.00;96.40
15143;DHT22;7672;50.834;6.286;2023-04-25T13:57:26;18.90;96.40
15143;DHT22;7672;50.834;6.286;2023-04-25T13:59:52;18.60;96.10
15143;DHT22;7672;50.834;6.286;2023-04-25T14:02:20;18.40;97.20
15143;DHT22;7672;50.834;6.286;2023-04-25T14:04:46;18.20;97.20
15143;DHT22;7672;50.834;6.286;2023-04-25T14:07:14;18.00;97.40
15143;DHT22;7672;50.834;6.286;2023-04-25T14:09:44;17.80;96.90
15143;DHT22;7672;50.834;6.286;2023-04-25T14:12:11;17.80;96.90
15143;DHT22;7672;50.834;6.286;2023-04-25T14:14:38;17.50;96.60
15143;DHT22;7672;50.834;6.286;2023-04-25T14:17:04;17.30;97.20
15143;DHT22;7672;50.834;6.286;2023-04-25T14:19:32;17.20;97.50
15143;DHT22;7672;50.834;6.286;2023-04-25T14:21:59;17.10;98.50
15143;DHT22;7672;50.834;6.286;2023-04-25T14:24:26;17.00;98.30
15143;DHT22;7672;50.834;6.286;2023-04-25T14:26:53;17.10;99.20
15143;DHT22;7672;50.834;6.286;2023-04-25T14:29:19;16.80;98.90
15143;DHT22;7672;50.834;6.286;2023-04-25T14:31:46;16.70;99.10
15143;DHT22;7672;50.834;6.286;2023-04-25T14:34:13;16.70;99.80
15143;DHT22;7672;50.834;6.286;2023-04-25T14:36:40;16.60;99.90
15143;DHT22;7672;50.834;6.286;2023-04-25T14:39:06;16.70;99.90
15143;DHT22;7672;50.834;6.286;2023-04-25T14:41:33;16.80;99.90
15143;DHT22;7672;50.834;6.286;2023-04-25T14:44:00;16.50;99.90
15143;DHT22;7672;50.834;6.286;2023-04-25T14:46:27;16.90;99.90
15143;DHT22;7672;50.834;6.286;2023-04-25T14:48:55;16.50;99.90
15143;DHT22;7672;50.834;6.286;2023-04-25T14:51:22;16.40;99.90
15143;DHT22;7672;50.834;6.286;2023-04-25T14:53:49;16.40;99.70
15143;DHT22;7672;50.834;6.286;2023-04-25T14:56:18;16.50;99.90
15143;DHT22;7672;50.834;6.286;2023-04-25T14:58:45;16.40;99.90
15143;DHT22;7672;50.834;6.286;2023-04-25T15:01:12;16.60;99.90
15143;DHT22;7672;50.834;6.286;2023-04-25T15:03:40;16.50;99.90
15143;DHT22;7672;50.834;6.286;2023-04-25T15:06:07;16.50;99.90
15143;DHT22;7672;50.834;6.286;2023-04-25T15:08:34;16.60;99.80
15143;DHT22;7672;50.834;6.286;2023-04-25T15:11:02;16.60;99.90
15143;DHT22;7672;50.834;6.286;2023-04-25T15:13:29;16.60;99.80
15143;DHT22;7672;50.834;6.286;2023-04-25T15:15:56;16.60;99.80
15143;DHT22;7672;50.834;6.286;2023-04-25T15:18:23;16.60;99.60
15143;DHT22;7672;50.834;6.286;2023-04-25T15:20:53;16.60;98.70
15143;DHT22;7672;50.834;6.286;2023-04-25T15:23:21;16.60;98.60
15143;DHT22;7672;50.834;6.286;2023-04-25T15:25:50;16.60;99.00
15143;DHT22;7672;50.834;6.286;2023-04-25T15:28:18;16.50;99.20
15143;DHT22;7672;50.834;6.286;2023-04-25T15:30:48;16.50;99.30
15143;DHT22;7672;50.834;6.286;2023-04-25T15:33:15;16.50;99.00
15143;DHT22;7672;50.834;6.286;2023-04-25T15:35:42;16.50;99.80
15143;DHT22;7672;50.834;6.286;2023-04-25T15:38:09;16.40;99.70
15143;DHT22;7672;50.834;6.286;2023-04-25T15:40:37;16.60;99.90
15143;DHT22;7672;50.834;6.286;2023-04-25T15:43:04;16.30;99.50
15143;DHT22;7672;50.834;6.286;2023-04-25T15:45:30;16.30;99.90
15143;DHT22;7672;50.834;6.286;2023-04-25T15:47:58;16.30;99.90
15143;DHT22;7672;50.834;6.286;2023-04-25T15:50:25;16.40;99.90
15143;DHT22;7672;50.834;6.286;2023-04-25T15:52:52;16.40;99.90
15143;DHT22;7672;50.834;6.286;2023-04-25T15:55:19;16.50;99.90